sensor_id;sensor_type;location;lat;lon;timestamp;P1;durP1;ratioP1;P2;durP2;ratioP2
49310;SDS011;35177;45.900;5.946;2022-10-19T00:01:36;10.60;;;6.28;;
49310;SDS011;35177;45.900;5.946;2022-10-19T00:04:01;15.00;;;7.35;;
49310;SDS011;35177;45.900;5.946;2022-10-19T00:06:29;12.75;;;6.40;;
49310;SDS011;35177;45.900;5.946;2022-10-19T00:09:00;9.18;;;6.18;;
49310;SDS011;35177;45.900;5.946;2022-10-19T00:11:28;15.68;;;6.57;;
49310;SDS011;35177;45.900;5.946;2022-10-19T00:13:55;10.20;;;6.55;;
49310;SDS011;35177;45.900;5.946;2022-10-19T00:16:21;11.27;;;5.85;;
49310;SDS011;35177;45.900;5.946;2022-10-19T00:18:48;11.77;;;5.10;;
49310;SDS011;35177;45.900;5.946;2022-10-19T00:21:15;9.85;;;5.30;;
49310;SDS011;35177;45.900;5.946;2022-10-19T00:23:42;12.02;;;5.90;;
49310;SDS011;35177;45.900;5.946;2022-10-19T00:26:09;9.30;;;5.30;;
49310;SDS011;35177;45.900;5.946;2022-10-19T00:28:34;10.93;;;5.10;;
49310;SDS011;35177;45.900;5.946;2022-10-19T00:31:01;10.48;;;5.13;;
49310;SDS011;35177;45.900;5.946;2022-10-19T00:33:35;9.77;;;5.60;;
49310;SDS011;35177;45.900;5.946;2022-10-19T00:36:01;11.38;;;5.65;;
49310;SDS011;35177;45.900;5.946;2022-10-19T00:38:29;10.05;;;5.32;;
49310;SDS011;35177;45.900;5.946;2022-10-19T00:40:55;8.68;;;5.35;;
49310;SDS011;35177;45.900;5.946;2022-10-19T00:43:21;6.63;;;5.18;;
49310;SDS011;35177;45.900;5.946;2022-10-19T00:45:49;8.65;;;5.28;;
49310;SDS011;35177;45.900;5.946;2022-10-19T00:48:22;12.80;;;4.80;;
49310;SDS011;35177;45.900;5.946;2022-10-19T00:50:52;9.73;;;5.47;;
49310;SDS011;35177;45.900;5.946;2022-10-19T00:53:19;8.50;;;4.63;;
49310;SDS011;35177;45.900;5.946;2022-10-19T00:55:47;10.25;;;5.80;;
49310;SDS011;35177;45.900;5.946;2022-10-19T00:58:13;11.85;;;5.95;;
49310;SDS011;35177;45.900;5.946;2022-10-19T01:00:39;7.70;;;5.65;;
49310;SDS011;35177;45.900;5.946;2022-10-19T01:03:05;8.23;;;4.70;;
49310;SDS011;35177;45.900;5.946;2022-10-19T01:05:33;13.98;;;6.28;;
49310;SDS011;35177;45.900;5.946;2022-10-19T01:08:00;10.93;;;6.28;;
49310;SDS011;35177;45.900;5.946;2022-10-19T01:13:27;96.07;;;7.82;;
49310;SDS011;35177;45.900;5.946;2022-10-19T01:21:47;13.15;;;5.90;;
49310;SDS011;35177;45.900;5.946;2022-10-19T01:24:40;12.87;;;5.40;;
49310;SDS011;35177;45.900;5.946;2022-10-19T01:30:06;10.65;;;6.28;;
49310;SDS011;35177;45.900;5.946;2022-10-19T01:32:40;7.80;;;4.78;;
49310;SDS011;35177;45.900;5.946;2022-10-19T01:35:19;6.38;;;4.30;;
49310;SDS011;35177;45.900;5.946;2022-10-19T01:46:10;7.82;;;4.35;;
49310;SDS011;35177;45.900;5.946;2022-10-19T01:48:40;41.42;;;6.13;;
49310;SDS011;35177;45.900;5.946;2022-10-19T01:51:42;16.42;;;4.50;;
49310;SDS011;35177;45.900;5.946;2022-10-19T01:56:30;7.07;;;5.43;;
49310;SDS011;35177;45.900;5.946;2022-10-19T01:59:00;8.35;;;5.90;;
49310;SDS011;35177;45.900;5.946;2022-10-19T02:01:30;11.23;;;4.90;;
49310;SDS011;35177;45.900;5.946;2022-10-19T02:04:00;8.07;;;5.00;;
49310;SDS011;35177;45.900;5.946;2022-10-19T02:06:27;8.02;;;4.28;;
49310;SDS011;35177;45.900;5.946;2022-10-19T02:08:53;13.68;;;6.40;;
49310;SDS011;35177;45.900;5.946;2022-10-19T02:11:19;9.18;;;5.22;;
49310;SDS011;35177;45.900;5.946;2022-10-19T02:13:47;14.95;;;6.22;;
49310;SDS011;35177;45.900;5.946;2022-10-19T02:16:18;12.65;;;5.30;;
49310;SDS011;35177;45.900;5.946;2022-10-19T02:18:48;12.52;;;5.88;;
49310;SDS011;35177;45.900;5.946;2022-10-19T02:21:16;15.15;;;6.93;;
49310;SDS011;35177;45.900;5.946;2022-10-19T02:23:42;7.80;;;5.55;;
49310;SDS011;35177;45.900;5.946;2022-10-19T02:26:07;10.93;;;5.30;;
49310;SDS011;35177;45.900;5.946;2022-10-19T02:28:33;9.95;;;5.13;;
49310;SDS011;35177;45.900;5.946;2022-10-19T02:30:59;9.52;;;4.80;;
49310;SDS011;35177;45.900;5.946;2022-10-19T02:33:26;6.00;;;4.35;;
49310;SDS011;35177;45.900;5.946;2022-10-19T02:35:53;8.77;;;4.53;;
49310;SDS011;35177;45.900;5.946;2022-10-19T02:38:20;10.38;;;4.78;;
49310;SDS011;35177;45.900;5.946;2022-10-19T02:40:50;7.20;;;4.95;;
49310;SDS011;35177;45.900;5.946;2022-10-19T02:43:37;9.10;;;5.63;;
49310;SDS011;35177;45.900;5.946;2022-10-19T02:46:41;8.05;;;5.13;;
49310;SDS011;35177;45.900;5.946;2022-10-19T02:49:12;8.75;;;5.55;;
49310;SDS011;35177;45.900;5.946;2022-10-19T02:51:54;10.05;;;4.78;;
49310;SDS011;35177;45.900;5.946;2022-10-19T02:54:22;6.97;;;4.53;;
49310;SDS011;35177;45.900;5.946;2022-10-19T02:56:48;11.70;;;4.78;;
49310;SDS011;35177;45.900;5.946;2022-10-19T02:59:14;8.70;;;4.80;;
49310;SDS011;35177;45.900;5.946;2022-10-19T03:01:39;10.43;;;4.90;;
49310;SDS011;35177;45.900;5.946;2022-10-19T03:04:05;10.48;;;6.03;;
49310;SDS011;35177;45.900;5.946;2022-10-19T03:06:30;151.02;;;10.85;;
49310;SDS011;35177;45.900;5.946;2022-10-19T03:08:56;53.22;;;7.78;;
49310;SDS011;35177;45.900;5.946;2022-10-19T03:11:21;15.38;;;5.47;;
49310;SDS011;35177;45.900;5.946;2022-10-19T03:13:47;10.13;;;5.93;;
49310;SDS011;35177;45.900;5.946;2022-10-19T03:16:12;8.63;;;5.70;;
49310;SDS011;35177;45.900;5.946;2022-10-19T03:18:38;14.32;;;5.95;;
49310;SDS011;35177;45.900;5.946;2022-10-19T03:21:05;17.42;;;7.03;;
49310;SDS011;35177;45.900;5.946;2022-10-19T03:23:32;14.35;;;5.85;;
49310;SDS011;35177;45.900;5.946;2022-10-19T03:25:58;33.60;;;6.97;;
49310;SDS011;35177;45.900;5.946;2022-10-19T03:28:23;14.68;;;7.38;;
49310;SDS011;35177;45.900;5.946;2022-10-19T03:30:49;17.80;;;6.53;;
49310;SDS011;35177;45.900;5.946;2022-10-19T03:33:14;15.73;;;6.80;;
49310;SDS011;35177;45.900;5.946;2022-10-19T03:35:40;18.67;;;7.07;;
49310;SDS011;35177;45.900;5.946;2022-10-19T03:38:05;39.80;;;9.70;;
49310;SDS011;35177;45.900;5.946;2022-10-19T03:40:31;23.52;;;7.10;;
49310;SDS011;35177;45.900;5.946;2022-10-19T03:42:57;20.10;;;7.85;;
49310;SDS011;35177;45.900;5.946;2022-10-19T03:45:22;10.93;;;6.97;;
49310;SDS011;35177;45.900;5.946;2022-10-19T03:47:48;12.27;;;6.80;;
49310;SDS011;35177;45.900;5.946;2022-10-19T03:50:14;9.32;;;6.78;;
49310;SDS011;35177;45.900;5.946;2022-10-19T03:52:41;11.40;;;6.55;;
49310;SDS011;35177;45.900;5.946;2022-10-19T03:55:07;14.02;;;7.85;;
49310;SDS011;35177;45.900;5.946;2022-10-19T03:57:33;12.38;;;7.43;;
49310;SDS011;35177;45.900;5.946;2022-10-19T03:59:58;14.23;;;7.15;;
49310;SDS011;35177;45.900;5.946;2022-10-19T04:02:24;8.57;;;5.88;;
49310;SDS011;35177;45.900;5.946;2022-10-19T04:04:49;10.48;;;6.13;;
49310;SDS011;35177;45.900;5.946;2022-10-19T04:07:14;13.55;;;5.40;;
49310;SDS011;35177;45.900;5.946;2022-10-19T04:09:40;10.55;;;5.90;;
49310;SDS011;35177;45.900;5.946;2022-10-19T04:12:05;13.27;;;7.07;;
49310;SDS011;35177;45.900;5.946;2022-10-19T04:14:31;10.73;;;5.82;;
49310;SDS011;35177;45.900;5.946;2022-10-19T04:16:56;12.20;;;7.28;;
49310;SDS011;35177;45.900;5.946;2022-10-19T04:19:22;10.35;;;6.55;;
49310;SDS011;35177;45.900;5.946;2022-10-19T04:21:47;16.05;;;6.68;;
49310;SDS011;35177;45.900;5.946;2022-10-19T04:24:14;9.05;;;6.65;;
49310;SDS011;35177;45.900;5.946;2022-10-19T04:26:42;10.85;;;5.85;;
49310;SDS011;35177;45.900;5.946;2022-10-19T04:29:15;12.32;;;5.05;;
49310;SDS011;35177;45.900;5.946;2022-10-19T04:31:43;30.27;;;6.72;;
49310;SDS011;35177;45.900;5.946;2022-10-19T04:34:09;48.60;;;9.00;;
49310;SDS011;35177;45.900;5.946;2022-10-19T04:36:35;11.00;;;6.28;;
49310;SDS011;35177;45.900;5.946;2022-10-19T04:39:01;8.38;;;5.80;;
49310;SDS011;35177;45.900;5.946;2022-10-19T04:41:26;30.15;;;7.95;;
49310;SDS011;35177;45.900;5.946;2022-10-19T04:43:55;63.83;;;9.05;;
49310;SDS011;35177;45.900;5.946;2022-10-19T04:46:22;55.60;;;8.70;;
49310;SDS011;35177;45.900;5.946;2022-10-19T04:48:49;57.85;;;7.78;;
49310;SDS011;35177;45.900;5.946;2022-10-19T04:51:15;40.40;;;7.55;;
49310;SDS011;35177;45.900;5.946;2022-10-19T04:53:42;61.47;;;8.25;;
49310;SDS011;35177;45.900;5.946;2022-10-19T04:56:15;98.47;;;10.98;;
49310;SDS011;35177;45.900;5.946;2022-10-19T04:58:43;195.45;;;14.60;;
49310;SDS011;35177;45.900;5.946;2022-10-19T05:01:10;303.13;;;15.57;;
49310;SDS011;35177;45.900;5.946;2022-10-19T05:03:38;199.60;;;15.38;;
49310;SDS011;35177;45.900;5.946;2022-10-19T05:06:04;89.53;;;10.52;;
49310;SDS011;35177;45.900;5.946;2022-10-19T05:08:30;115.68;;;9.93;;
49310;SDS011;35177;45.900;5.946;2022-10-19T05:11:00;16.70;;;6.80;;
49310;SDS011;35177;45.900;5.946;2022-10-19T05:13:31;21.02;;;7.03;;
49310;SDS011;35177;45.900;5.946;2022-10-19T05:15:58;19.25;;;6.68;;
49310;SDS011;35177;45.900;5.946;2022-10-19T05:18:24;66.57;;;9.02;;
49310;SDS011;35177;45.900;5.946;2022-10-19T05:20:50;15.35;;;6.80;;
49310;SDS011;35177;45.900;5.946;2022-10-19T05:23:16;9.20;;;5.65;;
49310;SDS011;35177;45.900;5.946;2022-10-19T05:25:41;22.00;;;7.30;;
49310;SDS011;35177;45.900;5.946;2022-10-19T05:28:07;14.82;;;5.43;;
49310;SDS011;35177;45.900;5.946;2022-10-19T05:30:32;14.50;;;6.15;;
49310;SDS011;35177;45.900;5.946;2022-10-19T05:32:58;9.65;;;5.30;;
49310;SDS011;35177;45.900;5.946;2022-10-19T05:35:23;13.18;;;6.05;;
49310;SDS011;35177;45.900;5.946;2022-10-19T05:37:55;19.73;;;5.90;;
49310;SDS011;35177;45.900;5.946;2022-10-19T05:40:20;15.18;;;6.57;;
49310;SDS011;35177;45.900;5.946;2022-10-19T05:42:46;14.30;;;6.88;;
49310;SDS011;35177;45.900;5.946;2022-10-19T05:45:11;11.90;;;5.25;;
49310;SDS011;35177;45.900;5.946;2022-10-19T05:47:37;9.60;;;5.68;;
49310;SDS011;35177;45.900;5.946;2022-10-19T05:50:02;6.88;;;4.75;;
49310;SDS011;35177;45.900;5.946;2022-10-19T05:52:28;12.65;;;5.00;;
49310;SDS011;35177;45.900;5.946;2022-10-19T05:54:53;46.55;;;6.13;;
49310;SDS011;35177;45.900;5.946;2022-10-19T05:57:20;6.30;;;4.80;;
49310;SDS011;35177;45.900;5.946;2022-10-19T05:59:45;8.50;;;5.10;;
49310;SDS011;35177;45.900;5.946;2022-10-19T06:02:12;8.00;;;4.50;;
49310;SDS011;35177;45.900;5.946;2022-10-19T06:04:38;5.78;;;4.35;;
49310;SDS011;35177;45.900;5.946;2022-10-19T06:07:03;11.52;;;4.75;;
49310;SDS011;35177;45.900;5.946;2022-10-19T06:09:29;7.30;;;4.88;;
49310;SDS011;35177;45.900;5.946;2022-10-19T06:11:59;10.40;;;4.65;;
49310;SDS011;35177;45.900;5.946;2022-10-19T06:14:25;5.47;;;4.60;;
49310;SDS011;35177;45.900;5.946;2022-10-19T06:16:51;9.88;;;5.82;;
49310;SDS011;35177;45.900;5.946;2022-10-19T06:19:16;8.13;;;5.72;;
49310;SDS011;35177;45.900;5.946;2022-10-19T06:21:43;13.07;;;5.60;;
49310;SDS011;35177;45.900;5.946;2022-10-19T06:24:09;12.13;;;6.40;;
49310;SDS011;35177;45.900;5.946;2022-10-19T06:26:35;15.98;;;7.20;;
49310;SDS011;35177;45.900;5.946;2022-10-19T06:29:01;13.13;;;7.50;;
49310;SDS011;35177;45.900;5.946;2022-10-19T06:31:28;12.40;;;5.85;;
49310;SDS011;35177;45.900;5.946;2022-10-19T06:33:56;9.45;;;6.97;;
49310;SDS011;35177;45.900;5.946;2022-10-19T06:36:22;9.75;;;6.13;;
49310;SDS011;35177;45.900;5.946;2022-10-19T06:38:50;13.15;;;7.38;;
49310;SDS011;35177;45.900;5.946;2022-10-19T06:41:17;15.63;;;7.80;;
49310;SDS011;35177;45.900;5.946;2022-10-19T06:43:42;17.77;;;8.70;;
49310;SDS011;35177;45.900;5.946;2022-10-19T06:46:12;23.02;;;9.23;;
49310;SDS011;35177;45.900;5.946;2022-10-19T06:48:41;20.02;;;9.45;;
49310;SDS011;35177;45.900;5.946;2022-10-19T06:51:07;19.05;;;10.13;;
49310;SDS011;35177;45.900;5.946;2022-10-19T06:53:33;23.75;;;9.80;;
49310;SDS011;35177;45.900;5.946;2022-10-19T06:56:01;18.75;;;9.80;;
49310;SDS011;35177;45.900;5.946;2022-10-19T06:58:27;24.25;;;8.93;;
49310;SDS011;35177;45.900;5.946;2022-10-19T07:00:57;21.35;;;9.13;;
49310;SDS011;35177;45.900;5.946;2022-10-19T07:03:25;20.52;;;8.38;;
49310;SDS011;35177;45.900;5.946;2022-10-19T07:05:52;18.83;;;9.07;;
49310;SDS011;35177;45.900;5.946;2022-10-19T07:08:22;16.80;;;9.00;;
49310;SDS011;35177;45.900;5.946;2022-10-19T07:10:52;16.73;;;8.30;;
49310;SDS011;35177;45.900;5.946;2022-10-19T07:13:18;15.70;;;8.55;;
49310;SDS011;35177;45.900;5.946;2022-10-19T07:15:44;10.35;;;8.30;;
49310;SDS011;35177;45.900;5.946;2022-10-19T07:18:10;13.60;;;8.10;;
49310;SDS011;35177;45.900;5.946;2022-10-19T07:20:35;16.73;;;8.57;;
49310;SDS011;35177;45.900;5.946;2022-10-19T07:23:01;14.75;;;9.38;;
49310;SDS011;35177;45.900;5.946;2022-10-19T07:25:26;15.35;;;8.00;;
49310;SDS011;35177;45.900;5.946;2022-10-19T07:27:52;13.52;;;7.70;;
49310;SDS011;35177;45.900;5.946;2022-10-19T07:30:17;12.93;;;7.97;;
49310;SDS011;35177;45.900;5.946;2022-10-19T07:32:44;12.45;;;6.70;;
49310;SDS011;35177;45.900;5.946;2022-10-19T07:35:10;15.45;;;8.07;;
49310;SDS011;35177;45.900;5.946;2022-10-19T07:37:35;12.60;;;7.03;;
49310;SDS011;35177;45.900;5.946;2022-10-19T07:40:01;12.45;;;6.18;;
49310;SDS011;35177;45.900;5.946;2022-10-19T07:42:27;13.55;;;6.72;;
49310;SDS011;35177;45.900;5.946;2022-10-19T07:44:54;14.57;;;6.90;;
49310;SDS011;35177;45.900;5.946;2022-10-19T07:47:20;14.23;;;7.75;;
49310;SDS011;35177;45.900;5.946;2022-10-19T07:49:45;17.73;;;8.80;;
49310;SDS011;35177;45.900;5.946;2022-10-19T07:52:11;15.68;;;7.75;;
49310;SDS011;35177;45.900;5.946;2022-10-19T07:54:36;11.77;;;7.65;;
49310;SDS011;35177;45.900;5.946;2022-10-19T07:57:02;20.95;;;9.07;;
49310;SDS011;35177;45.900;5.946;2022-10-19T07:59:27;11.73;;;8.80;;
49310;SDS011;35177;45.900;5.946;2022-10-19T08:01:53;15.50;;;7.80;;
49310;SDS011;35177;45.900;5.946;2022-10-19T08:04:19;14.70;;;7.25;;
49310;SDS011;35177;45.900;5.946;2022-10-19T08:06:45;13.23;;;7.28;;
49310;SDS011;35177;45.900;5.946;2022-10-19T08:09:11;12.68;;;6.88;;
49310;SDS011;35177;45.900;5.946;2022-10-19T08:11:36;12.60;;;7.10;;
49310;SDS011;35177;45.900;5.946;2022-10-19T08:14:02;15.45;;;7.13;;
49310;SDS011;35177;45.900;5.946;2022-10-19T08:16:29;13.75;;;8.00;;
49310;SDS011;35177;45.900;5.946;2022-10-19T08:19:05;13.52;;;7.80;;
49310;SDS011;35177;45.900;5.946;2022-10-19T08:21:32;13.65;;;7.22;;
49310;SDS011;35177;45.900;5.946;2022-10-19T08:23:59;13.48;;;7.53;;
49310;SDS011;35177;45.900;5.946;2022-10-19T08:26:26;9.98;;;7.10;;
49310;SDS011;35177;45.900;5.946;2022-10-19T08:28:57;17.30;;;7.38;;
49310;SDS011;35177;45.900;5.946;2022-10-19T08:31:26;19.48;;;7.15;;
49310;SDS011;35177;45.900;5.946;2022-10-19T08:33:52;13.82;;;6.55;;
49310;SDS011;35177;45.900;5.946;2022-10-19T08:36:17;15.70;;;7.88;;
49310;SDS011;35177;45.900;5.946;2022-10-19T08:38:46;13.00;;;7.95;;
49310;SDS011;35177;45.900;5.946;2022-10-19T08:41:18;14.77;;;7.90;;
49310;SDS011;35177;45.900;5.946;2022-10-19T08:43:56;16.25;;;7.35;;
49310;SDS011;35177;45.900;5.946;2022-10-19T08:49:14;10.85;;;6.53;;
49310;SDS011;35177;45.900;5.946;2022-10-19T08:51:43;14.75;;;7.05;;
49310;SDS011;35177;45.900;5.946;2022-10-19T08:54:15;10.27;;;6.63;;
49310;SDS011;35177;45.900;5.946;2022-10-19T08:57:26;13.80;;;6.57;;
49310;SDS011;35177;45.900;5.946;2022-10-19T09:00:02;17.20;;;7.35;;
49310;SDS011;35177;45.900;5.946;2022-10-19T09:05:44;13.27;;;7.07;;
49310;SDS011;35177;45.900;5.946;2022-10-19T09:08:17;12.48;;;6.75;;
49310;SDS011;35177;45.900;5.946;2022-10-19T09:10:45;16.38;;;5.90;;
49310;SDS011;35177;45.900;5.946;2022-10-19T09:16:04;14.80;;;6.93;;
49310;SDS011;35177;45.900;5.946;2022-10-19T09:18:33;18.77;;;5.80;;
49310;SDS011;35177;45.900;5.946;2022-10-19T09:21:03;16.23;;;6.28;;
49310;SDS011;35177;45.900;5.946;2022-10-19T09:23:37;15.23;;;6.32;;
49310;SDS011;35177;45.900;5.946;2022-10-19T09:26:09;10.45;;;6.13;;
49310;SDS011;35177;45.900;5.946;2022-10-19T09:29:11;11.23;;;5.72;;
49310;SDS011;35177;45.900;5.946;2022-10-19T09:31:40;16.48;;;6.22;;
49310;SDS011;35177;45.900;5.946;2022-10-19T09:34:11;15.57;;;5.65;;
49310;SDS011;35177;45.900;5.946;2022-10-19T09:36:53;9.63;;;5.85;;
49310;SDS011;35177;45.900;5.946;2022-10-19T09:39:22;7.90;;;5.38;;
49310;SDS011;35177;45.900;5.946;2022-10-19T09:41:50;15.95;;;5.70;;
49310;SDS011;35177;45.900;5.946;2022-10-19T09:44:16;13.27;;;6.32;;
49310;SDS011;35177;45.900;5.946;2022-10-19T09:46:50;10.82;;;5.72;;
49310;SDS011;35177;45.900;5.946;2022-10-19T09:49:18;15.07;;;5.90;;
49310;SDS011;35177;45.900;5.946;2022-10-19T09:52:01;10.25;;;5.70;;
49310;SDS011;35177;45.900;5.946;2022-10-19T09:54:35;15.98;;;5.53;;
49310;SDS011;35177;45.900;5.946;2022-10-19T09:57:02;21.17;;;5.80;;
49310;SDS011;35177;45.900;5.946;2022-10-19T09:59:30;11.40;;;5.85;;
49310;SDS011;35177;45.900;5.946;2022-10-19T10:02:10;14.00;;;6.38;;
49310;SDS011;35177;45.900;5.946;2022-10-19T10:04:46;14.10;;;6.22;;
49310;SDS011;35177;45.900;5.946;2022-10-19T10:07:41;11.70;;;6.60;;
49310;SDS011;35177;45.900;5.946;2022-10-19T10:10:52;22.10;;;6.85;;
49310;SDS011;35177;45.900;5.946;2022-10-19T10:15:40;13.00;;;6.43;;
49310;SDS011;35177;45.900;5.946;2022-10-19T10:18:14;13.63;;;5.80;;
49310;SDS011;35177;45.900;5.946;2022-10-19T10:20:54;7.45;;;5.53;;
49310;SDS011;35177;45.900;5.946;2022-10-19T10:23:31;14.00;;;6.10;;
49310;SDS011;35177;45.900;5.946;2022-10-19T10:26:00;16.95;;;6.47;;
49310;SDS011;35177;45.900;5.946;2022-10-19T10:28:27;15.23;;;6.65;;
49310;SDS011;35177;45.900;5.946;2022-10-19T10:30:58;12.05;;;5.70;;
49310;SDS011;35177;45.900;5.946;2022-10-19T10:33:25;14.13;;;6.18;;
49310;SDS011;35177;45.900;5.946;2022-10-19T10:35:55;10.45;;;5.32;;
49310;SDS011;35177;45.900;5.946;2022-10-19T10:38:29;11.38;;;5.38;;
49310;SDS011;35177;45.900;5.946;2022-10-19T10:41:14;14.90;;;5.55;;
49310;SDS011;35177;45.900;5.946;2022-10-19T10:43:49;14.07;;;5.32;;
49310;SDS011;35177;45.900;5.946;2022-10-19T10:46:28;12.35;;;5.80;;
49310;SDS011;35177;45.900;5.946;2022-10-19T10:49:00;15.75;;;5.75;;
49310;SDS011;35177;45.900;5.946;2022-10-19T10:56:41;20.00;;;5.13;;
49310;SDS011;35177;45.900;5.946;2022-10-19T10:59:13;10.20;;;5.30;;
49310;SDS011;35177;45.900;5.946;2022-10-19T11:01:52;14.43;;;5.10;;
49310;SDS011;35177;45.900;5.946;2022-10-19T11:04:21;16.02;;;4.78;;
49310;SDS011;35177;45.900;5.946;2022-10-19T11:06:53;10.85;;;4.40;;
49310;SDS011;35177;45.900;5.946;2022-10-19T11:09:37;12.02;;;4.50;;
49310;SDS011;35177;45.900;5.946;2022-10-19T11:12:09;8.77;;;4.57;;
49310;SDS011;35177;45.900;5.946;2022-10-19T11:14:43;8.25;;;4.72;;
49310;SDS011;35177;45.900;5.946;2022-10-19T11:17:22;15.73;;;5.18;;
49310;SDS011;35177;45.900;5.946;2022-10-19T11:19:51;13.40;;;5.03;;
49310;SDS011;35177;45.900;5.946;2022-10-19T11:25:07;10.30;;;5.53;;
49310;SDS011;35177;45.900;5.946;2022-10-19T11:36:09;12.93;;;5.03;;
49310;SDS011;35177;45.900;5.946;2022-10-19T11:43:57;12.15;;;5.05;;
49310;SDS011;35177;45.900;5.946;2022-10-19T11:46:39;14.15;;;5.57;;
49310;SDS011;35177;45.900;5.946;2022-10-19T11:49:39;14.43;;;5.10;;
49310;SDS011;35177;45.900;5.946;2022-10-19T12:00:34;15.52;;;6.07;;
49310;SDS011;35177;45.900;5.946;2022-10-19T12:08:54;13.05;;;6.32;;
49310;SDS011;35177;45.900;5.946;2022-10-19T12:11:39;20.00;;;6.50;;
49310;SDS011;35177;45.900;5.946;2022-10-19T12:14:14;15.07;;;5.60;;
49310;SDS011;35177;45.900;5.946;2022-10-19T12:16:45;11.07;;;5.20;;
49310;SDS011;35177;45.900;5.946;2022-10-19T12:19:18;13.40;;;5.55;;
49310;SDS011;35177;45.900;5.946;2022-10-19T12:21:49;15.18;;;5.38;;
49310;SDS011;35177;45.900;5.946;2022-10-19T12:24:24;14.63;;;6.82;;
49310;SDS011;35177;45.900;5.946;2022-10-19T12:26:52;12.60;;;6.57;;
49310;SDS011;35177;45.900;5.946;2022-10-19T12:31:50;17.33;;;6.63;;
49310;SDS011;35177;45.900;5.946;2022-10-19T12:42:29;18.85;;;5.32;;
49310;SDS011;35177;45.900;5.946;2022-10-19T12:45:02;9.55;;;5.13;;
49310;SDS011;35177;45.900;5.946;2022-10-19T12:47:32;15.57;;;4.78;;
49310;SDS011;35177;45.900;5.946;2022-10-19T12:49:58;9.10;;;4.35;;
49310;SDS011;35177;45.900;5.946;2022-10-19T12:57:47;19.02;;;6.03;;
49310;SDS011;35177;45.900;5.946;2022-10-19T13:00:23;12.25;;;5.75;;
49310;SDS011;35177;45.900;5.946;2022-10-19T13:03:01;11.93;;;5.90;;
49310;SDS011;35177;45.900;5.946;2022-10-19T13:05:28;17.77;;;5.45;;
49310;SDS011;35177;45.900;5.946;2022-10-19T13:07:55;13.10;;;4.63;;
49310;SDS011;35177;45.900;5.946;2022-10-19T13:10:23;15.38;;;5.18;;
49310;SDS011;35177;45.900;5.946;2022-10-19T13:12:50;12.10;;;5.15;;
49310;SDS011;35177;45.900;5.946;2022-10-19T13:18:00;8.38;;;4.32;;
49310;SDS011;35177;45.900;5.946;2022-10-19T13:25:28;16.77;;;5.03;;
49310;SDS011;35177;45.900;5.946;2022-10-19T13:28:01;14.35;;;4.65;;
49310;SDS011;35177;45.900;5.946;2022-10-19T13:38:32;18.27;;;4.80;;
49310;SDS011;35177;45.900;5.946;2022-10-19T13:43:33;11.95;;;4.80;;
49310;SDS011;35177;45.900;5.946;2022-10-19T13:46:06;11.10;;;4.82;;
49310;SDS011;35177;45.900;5.946;2022-10-19T13:51:17;12.63;;;4.95;;
49310;SDS011;35177;45.900;5.946;2022-10-19T13:54:00;10.55;;;4.40;;
49310;SDS011;35177;45.900;5.946;2022-10-19T14:07:31;11.90;;;4.22;;
49310;SDS011;35177;45.900;5.946;2022-10-19T14:10:11;7.40;;;3.67;;
49310;SDS011;35177;45.900;5.946;2022-10-19T14:12:41;10.80;;;3.95;;
49310;SDS011;35177;45.900;5.946;2022-10-19T14:15:27;12.77;;;4.95;;
49310;SDS011;35177;45.900;5.946;2022-10-19T14:17:55;10.40;;;3.97;;
49310;SDS011;35177;45.900;5.946;2022-10-19T14:20:29;13.43;;;4.68;;
49310;SDS011;35177;45.900;5.946;2022-10-19T14:22:57;13.85;;;4.53;;
49310;SDS011;35177;45.900;5.946;2022-10-19T14:25:41;12.93;;;4.00;;
49310;SDS011;35177;45.900;5.946;2022-10-19T14:28:17;10.77;;;4.63;;
49310;SDS011;35177;45.900;5.946;2022-10-19T14:30:43;9.82;;;4.22;;
49310;SDS011;35177;45.900;5.946;2022-10-19T14:33:19;13.80;;;4.50;;
49310;SDS011;35177;45.900;5.946;2022-10-19T14:35:47;17.58;;;4.72;;
49310;SDS011;35177;45.900;5.946;2022-10-19T14:38:18;9.75;;;4.18;;
49310;SDS011;35177;45.900;5.946;2022-10-19T14:40:48;14.93;;;4.45;;
49310;SDS011;35177;45.900;5.946;2022-10-19T14:46:02;11.15;;;4.32;;
49310;SDS011;35177;45.900;5.946;2022-10-19T14:48:31;12.95;;;4.20;;
49310;SDS011;35177;45.900;5.946;2022-10-19T14:50:57;9.07;;;4.20;;
49310;SDS011;35177;45.900;5.946;2022-10-19T14:56:00;9.88;;;4.35;;
49310;SDS011;35177;45.900;5.946;2022-10-19T14:58:34;12.57;;;3.97;;
49310;SDS011;35177;45.900;5.946;2022-10-19T15:01:08;12.60;;;3.85;;
49310;SDS011;35177;45.900;5.946;2022-10-19T15:03:35;13.88;;;4.88;;
49310;SDS011;35177;45.900;5.946;2022-10-19T15:06:06;16.33;;;4.32;;
49310;SDS011;35177;45.900;5.946;2022-10-19T15:08:36;25.50;;;5.40;;
49310;SDS011;35177;45.900;5.946;2022-10-19T15:11:08;12.02;;;4.70;;
49310;SDS011;35177;45.900;5.946;2022-10-19T15:13:47;10.85;;;4.40;;
49310;SDS011;35177;45.900;5.946;2022-10-19T15:16:29;16.95;;;4.28;;
49310;SDS011;35177;45.900;5.946;2022-10-19T15:19:40;14.80;;;4.82;;
49310;SDS011;35177;45.900;5.946;2022-10-19T15:24:33;32.75;;;6.78;;
49310;SDS011;35177;45.900;5.946;2022-10-19T15:27:07;18.88;;;5.35;;
49310;SDS011;35177;45.900;5.946;2022-10-19T15:30:44;18.58;;;4.70;;
49310;SDS011;35177;45.900;5.946;2022-10-19T15:32:41;13.63;;;4.60;;
49310;SDS011;35177;45.900;5.946;2022-10-19T15:38:03;18.40;;;4.40;;
49310;SDS011;35177;45.900;5.946;2022-10-19T15:40:35;14.98;;;4.93;;
49310;SDS011;35177;45.900;5.946;2022-10-19T15:46:01;11.10;;;4.13;;
49310;SDS011;35177;45.900;5.946;2022-10-19T15:51:50;15.65;;;5.35;;
49310;SDS011;35177;45.900;5.946;2022-10-19T15:53:52;13.70;;;4.85;;
49310;SDS011;35177;45.900;5.946;2022-10-19T15:56:19;12.18;;;4.95;;
49310;SDS011;35177;45.900;5.946;2022-10-19T15:58:49;16.15;;;5.38;;
49310;SDS011;35177;45.900;5.946;2022-10-19T16:01:20;11.10;;;5.05;;
49310;SDS011;35177;45.900;5.946;2022-10-19T16:03:48;17.52;;;5.22;;
49310;SDS011;35177;45.900;5.946;2022-10-19T16:06:14;8.85;;;4.82;;
49310;SDS011;35177;45.900;5.946;2022-10-19T16:08:42;12.30;;;4.93;;
49310;SDS011;35177;45.900;5.946;2022-10-19T16:11:12;14.90;;;5.40;;
49310;SDS011;35177;45.900;5.946;2022-10-19T16:13:38;23.15;;;5.20;;
49310;SDS011;35177;45.900;5.946;2022-10-19T16:16:04;16.75;;;5.63;;
49310;SDS011;35177;45.900;5.946;2022-10-19T16:18:31;11.32;;;5.13;;
49310;SDS011;35177;45.900;5.946;2022-10-19T16:20:57;13.45;;;5.15;;
49310;SDS011;35177;45.900;5.946;2022-10-19T16:23:23;13.30;;;5.40;;
49310;SDS011;35177;45.900;5.946;2022-10-19T16:25:48;17.60;;;5.65;;
49310;SDS011;35177;45.900;5.946;2022-10-19T16:28:14;16.70;;;5.72;;
49310;SDS011;35177;45.900;5.946;2022-10-19T16:30:41;17.70;;;6.15;;
49310;SDS011;35177;45.900;5.946;2022-10-19T16:33:06;17.45;;;5.45;;
49310;SDS011;35177;45.900;5.946;2022-10-19T16:35:32;15.85;;;5.88;;
49310;SDS011;35177;45.900;5.946;2022-10-19T16:37:57;18.23;;;6.53;;
49310;SDS011;35177;45.900;5.946;2022-10-19T16:40:23;15.65;;;5.25;;
49310;SDS011;35177;45.900;5.946;2022-10-19T16:42:49;16.92;;;5.68;;
49310;SDS011;35177;45.900;5.946;2022-10-19T16:45:15;18.77;;;5.68;;
49310;SDS011;35177;45.900;5.946;2022-10-19T16:47:41;12.30;;;5.35;;
49310;SDS011;35177;45.900;5.946;2022-10-19T16:50:08;9.27;;;5.35;;
49310;SDS011;35177;45.900;5.946;2022-10-19T16:52:35;14.52;;;5.50;;
49310;SDS011;35177;45.900;5.946;2022-10-19T16:55:00;18.33;;;5.93;;
49310;SDS011;35177;45.900;5.946;2022-10-19T16:57:26;11.68;;;5.20;;
49310;SDS011;35177;45.900;5.946;2022-10-19T16:59:52;16.30;;;5.43;;
49310;SDS011;35177;45.900;5.946;2022-10-19T17:02:18;17.30;;;5.65;;
49310;SDS011;35177;45.900;5.946;2022-10-19T17:04:45;14.95;;;6.60;;